createdAt,value
2022-07-28T00:00:57.544Z,3.03
2022-07-28T00:03:25.314Z,1.77
2022-07-28T00:05:53.249Z,1.40
2022-07-28T00:08:21.122Z,2.13
2022-07-28T00:10:50.264Z,1.58
2022-07-28T00:13:18.157Z,1.40
2022-07-28T00:15:45.971Z,1.58
2022-07-28T00:18:13.921Z,1.95
2022-07-28T00:20:41.744Z,1.45
2022-07-28T00:23:09.697Z,1.70
2022-07-28T00:25:37.634Z,1.70
2022-07-28T00:28:06.838Z,2.38
2022-07-28T00:30:34.698Z,2.22
2022-07-28T00:33:02.830Z,1.92
2022-07-28T00:35:32.573Z,1.95
2022-07-28T00:38:01.177Z,2.10
2022-07-28T00:40:43.079Z,2.15
2022-07-28T00:43:12.189Z,3.25
2022-07-28T00:45:39.984Z,2.88
2022-07-28T00:48:07.798Z,1.83
2022-07-28T00:50:35.568Z,2.45
2022-07-28T00:53:03.752Z,2.20
2022-07-28T00:55:32.558Z,4.00
2022-07-28T00:58:21.590Z,2.50
2022-07-28T01:00:49.348Z,2.88
2022-07-28T01:03:17.163Z,2.50
2022-07-28T01:05:46.807Z,3.25
2022-07-28T01:08:17.731Z,3.60
2022-07-28T01:10:47.727Z,3.28
2022-07-28T01:13:18.354Z,3.90
2022-07-28T01:15:49.596Z,4.15
2022-07-28T01:18:18.732Z,4.93
2022-07-28T01:20:48.116Z,4.10
2022-07-28T01:23:28.897Z,3.90
2022-07-28T01:26:03.245Z,4.43
2022-07-28T01:28:44.528Z,4.43
2022-07-28T01:31:15.445Z,4.68
2022-07-28T01:33:45.331Z,4.45
2022-07-28T01:36:15.419Z,5.18
2022-07-28T01:38:43.126Z,4.82
2022-07-28T01:41:12.450Z,5.13
2022-07-28T01:43:42.396Z,5.15
2022-07-28T01:46:10.190Z,5.15
2022-07-28T01:48:40.229Z,5.53
2022-07-28T01:51:08.418Z,6.00
2022-07-28T01:53:37.769Z,5.75
2022-07-28T01:56:06.233Z,5.90
2022-07-28T01:58:33.940Z,6.32
2022-07-28T02:01:01.659Z,5.88
2022-07-28T02:03:29.878Z,6.35
2022-07-28T02:05:59.238Z,5.90
2022-07-28T02:08:27.010Z,7.00
2022-07-28T02:11:18.779Z,6.70
2022-07-28T02:13:47.208Z,7.30
2022-07-28T02:16:15.282Z,7.18
2022-07-28T02:18:43.019Z,7.43
2022-07-28T02:21:12.095Z,8.35
2022-07-28T02:23:40.016Z,8.38
2022-07-28T02:26:09.856Z,8.40
2022-07-28T02:28:37.535Z,8.52
2022-07-28T02:31:10.175Z,9.02
2022-07-28T02:33:58.793Z,9.13
2022-07-28T02:36:29.349Z,9.65
2022-07-28T02:39:02.652Z,9.35
2022-07-28T02:41:30.813Z,10.38
2022-07-28T02:44:00.664Z,10.73
2022-07-28T02:46:30.134Z,10.88
2022-07-28T02:49:00.796Z,10.88
2022-07-28T02:51:29.924Z,11.02
2022-07-28T02:53:57.586Z,10.30
2022-07-28T02:56:25.247Z,10.75
2022-07-28T02:58:52.928Z,11.18
2022-07-28T03:01:20.846Z,11.30
2022-07-28T03:03:48.606Z,10.65
2022-07-28T03:06:17.121Z,11.07
2022-07-28T03:08:46.163Z,10.75
2022-07-28T03:11:14.721Z,10.63
2022-07-28T03:13:42.389Z,10.65
2022-07-28T03:16:10.241Z,9.80
2022-07-28T03:18:37.953Z,10.52
2022-07-28T03:21:07.018Z,10.82
2022-07-28T03:23:37.461Z,9.85
2022-07-28T03:26:15.912Z,9.98
2022-07-28T03:28:43.625Z,9.00
2022-07-28T03:31:12.151Z,9.63
2022-07-28T03:33:39.976Z,9.00
2022-07-28T03:36:09.637Z,8.88
2022-07-28T03:38:39.017Z,8.90
2022-07-28T03:41:09.448Z,8.15
2022-07-28T03:43:37.182Z,8.63
2022-07-28T03:46:07.599Z,7.63
2022-07-28T03:48:38.987Z,7.97
2022-07-28T03:51:06.807Z,7.63
2022-07-28T03:53:34.513Z,7.30
2022-07-28T03:56:03.280Z,7.00
2022-07-28T03:58:32.976Z,6.72
2022-07-28T04:01:00.743Z,6.90
2022-07-28T04:03:42.907Z,6.13
2022-07-28T04:06:12.003Z,6.00
2022-07-28T04:08:39.707Z,5.72
2022-07-28T04:11:07.419Z,5.00
2022-07-28T04:13:37.130Z,4.93
2022-07-28T04:16:05.660Z,4.60
2022-07-28T04:18:33.369Z,4.95
2022-07-28T04:21:01.065Z,4.35
2022-07-28T04:23:29.196Z,4.30
2022-07-28T04:25:56.882Z,4.18
2022-07-28T04:28:25.286Z,3.83
2022-07-28T04:30:54.339Z,3.40
2022-07-28T04:33:22.097Z,3.38
2022-07-28T04:35:49.770Z,3.03
2022-07-28T04:38:17.980Z,3.45
2022-07-28T04:40:45.898Z,3.10
2022-07-28T04:43:13.738Z,2.70
2022-07-28T04:45:52.968Z,3.05
2022-07-28T04:48:23.870Z,2.78
2022-07-28T04:50:52.590Z,2.40
2022-07-28T04:53:20.692Z,2.20
2022-07-28T04:55:49.275Z,2.33
2022-07-28T04:58:18.268Z,1.88
2022-07-28T05:00:49.921Z,2.40
2022-07-28T05:03:18.323Z,1.90
2022-07-28T05:05:51.440Z,2.40
2022-07-28T05:08:26.117Z,2.60
2022-07-28T05:10:55.397Z,1.42
2022-07-28T05:13:23.072Z,1.65
2022-07-28T05:15:51.087Z,2.00
2022-07-28T05:18:18.781Z,1.77
2022-07-28T05:20:47.789Z,1.83
2022-07-28T05:23:17.508Z,1.38
2022-07-28T05:25:45.278Z,1.60
2022-07-28T05:28:13.005Z,1.90
2022-07-28T05:30:40.711Z,1.70
2022-07-28T05:33:08.440Z,3.60
2022-07-28T05:35:36.119Z,1.75
2022-07-28T05:38:10.369Z,1.70
2022-07-28T05:40:38.625Z,1.90
2022-07-28T05:43:06.339Z,1.60
2022-07-28T05:45:34.553Z,1.65
2022-07-28T05:48:02.319Z,1.63
2022-07-28T05:50:30.002Z,1.77
2022-07-28T05:52:57.684Z,2.28
2022-07-28T05:55:26.828Z,1.60
2022-07-28T05:57:55.048Z,2.17
2022-07-28T06:00:24.033Z,1.63
2022-07-28T06:02:51.795Z,2.50
2022-07-28T06:05:20.254Z,1.80
2022-07-28T06:07:48.340Z,2.42
2022-07-28T06:10:16.980Z,2.05
2022-07-28T06:12:47.060Z,2.40
2022-07-28T06:15:14.983Z,1.75
2022-07-28T06:17:42.701Z,2.35
2022-07-28T06:20:11.435Z,3.38
2022-07-28T06:22:43.400Z,4.38
2022-07-28T06:25:14.783Z,1.33
2022-07-28T06:27:42.543Z,3.80
2022-07-28T06:30:12.392Z,3.70
2022-07-28T06:32:40.113Z,3.05
2022-07-28T06:35:08.919Z,4.68
2022-07-28T06:37:36.581Z,3.55
2022-07-28T06:40:04.800Z,3.47
2022-07-28T06:42:32.573Z,4.35
2022-07-28T06:45:00.355Z,3.85
2022-07-28T06:47:29.505Z,1.60
2022-07-28T06:49:57.181Z,1.83
2022-07-28T06:52:25.017Z,3.92
2022-07-28T06:54:53.077Z,2.50
2022-07-28T06:57:33.143Z,3.05
2022-07-28T07:00:02.431Z,2.65
2022-07-28T07:02:31.452Z,2.53
2022-07-28T07:04:59.233Z,1.90
2022-07-28T07:07:26.950Z,4.68
2022-07-28T07:09:54.642Z,3.10
2022-07-28T07:12:22.378Z,2.67
2022-07-28T07:14:50.108Z,3.50
2022-07-28T07:17:17.844Z,2.97
2022-07-28T07:19:46.869Z,3.20
2022-07-28T07:22:14.667Z,2.50
2022-07-28T07:24:42.415Z,3.63
2022-07-28T07:27:10.098Z,2.92
2022-07-28T07:29:37.799Z,2.60
2022-07-28T07:32:10.175Z,2.40
2022-07-28T07:34:39.306Z,3.53
2022-07-28T07:37:13.441Z,3.00
2022-07-28T07:39:41.972Z,3.72
2022-07-28T07:42:09.667Z,2.70
2022-07-28T07:44:37.376Z,2.85
2022-07-28T07:47:05.578Z,2.40
2022-07-28T07:49:44.946Z,2.63
2022-07-28T07:52:15.165Z,2.88
2022-07-28T07:54:43.006Z,2.95
2022-07-28T07:57:10.780Z,2.60
2022-07-28T07:59:38.478Z,3.38
2022-07-28T08:02:06.722Z,2.08
2022-07-28T08:04:37.451Z,2.95
2022-07-28T08:07:06.016Z,4.93
2022-07-28T08:09:35.083Z,2.60
2022-07-28T08:12:02.827Z,2.33
2022-07-28T08:14:30.500Z,2.97
2022-07-28T08:16:59.177Z,3.78
2022-07-28T08:19:26.994Z,3.00
2022-07-28T08:21:55.302Z,2.40
2022-07-28T08:24:32.537Z,2.75
2022-07-28T08:27:02.932Z,4.63
2022-07-28T08:29:30.650Z,1.80
2022-07-28T08:31:58.376Z,1.73
2022-07-28T08:34:33.350Z,2.53
2022-07-28T08:37:02.103Z,2.78
2022-07-28T08:39:29.834Z,3.10
2022-07-28T08:42:00.535Z,1.48
2022-07-28T08:44:38.794Z,2.25
2022-07-28T08:47:08.819Z,1.70
2022-07-28T08:49:39.267Z,2.50
2022-07-28T08:52:08.645Z,1.70
2022-07-28T08:54:36.330Z,1.58
2022-07-28T08:57:04.290Z,2.08
2022-07-28T08:59:33.362Z,2.22
2022-07-28T09:02:01.101Z,1.50
2022-07-28T09:04:28.885Z,1.70
2022-07-28T09:06:56.582Z,2.20
2022-07-28T09:09:24.303Z,2.25
2022-07-28T09:11:51.999Z,2.03
2022-07-28T09:14:19.731Z,2.15
2022-07-28T09:16:48.735Z,3.13
2022-07-28T09:19:16.420Z,2.10
2022-07-28T09:21:44.124Z,2.15
2022-07-28T09:24:12.054Z,2.90
2022-07-28T09:26:43.765Z,3.25
2022-07-28T09:29:11.469Z,2.38
2022-07-28T09:31:39.233Z,4.38
2022-07-28T09:34:08.419Z,3.78
2022-07-28T09:36:38.746Z,1.85
2022-07-28T09:39:06.497Z,2.35
2022-07-28T09:41:47.355Z,2.38
2022-07-28T09:44:18.940Z,1.98
2022-07-28T09:46:46.897Z,3.40
2022-07-28T09:49:16.261Z,3.17
2022-07-28T09:51:44.021Z,2.67
2022-07-28T09:54:12.804Z,4.60
2022-07-28T09:56:41.748Z,2.58
2022-07-28T09:59:09.527Z,1.63
2022-07-28T10:01:52.186Z,3.53
2022-07-28T10:04:31.741Z,3.70
2022-07-28T10:07:05.432Z,4.32
2022-07-28T10:09:33.215Z,3.38
2022-07-28T10:12:19.459Z,3.65
2022-07-28T10:14:47.449Z,3.50
2022-07-28T10:17:31.058Z,3.22
2022-07-28T10:20:00.981Z,3.35
2022-07-28T10:22:29.897Z,3.55
2022-07-28T10:24:57.625Z,2.92
2022-07-28T10:27:25.868Z,2.60
2022-07-28T10:29:56.713Z,1.38
2022-07-28T10:32:24.401Z,2.83
2022-07-28T10:34:52.927Z,2.55
2022-07-28T10:37:23.615Z,1.83
2022-07-28T10:39:56.298Z,2.22
2022-07-28T10:42:24.243Z,2.50
2022-07-28T10:44:52.353Z,2.15
2022-07-28T10:47:20.593Z,1.90
2022-07-28T10:49:48.650Z,3.28
2022-07-28T10:52:45.831Z,1.58
2022-07-28T10:55:10.524Z,3.08
2022-07-28T10:57:38.855Z,2.25
2022-07-28T11:00:17.626Z,1.98
2022-07-28T11:02:51.158Z,2.00
2022-07-28T11:05:32.883Z,2.40
2022-07-28T11:08:02.269Z,2.08
2022-07-28T11:10:31.540Z,2.08
2022-07-28T11:13:00.515Z,1.42
2022-07-28T11:15:33.768Z,1.42
2022-07-28T11:18:04.213Z,1.70
2022-07-28T11:21:08.755Z,2.00
2022-07-28T11:23:54.934Z,2.00
2022-07-28T11:26:38.664Z,1.85
2022-07-28T11:29:20.156Z,4.03
2022-07-28T11:31:57.952Z,4.32
2022-07-28T11:34:26.412Z,4.28
2022-07-28T11:37:02.292Z,3.92
2022-07-28T11:39:30.699Z,5.45
2022-07-28T11:42:27.557Z,4.57
2022-07-28T11:44:55.564Z,4.55
2022-07-28T11:47:23.763Z,3.28
2022-07-28T11:50:13.132Z,5.25
2022-07-28T11:52:41.381Z,13.02
2022-07-28T11:55:09.131Z,11.80
2022-07-28T11:57:41.881Z,38.05
2022-07-28T12:00:10.601Z,29.40
2022-07-28T12:02:38.923Z,14.05
2022-07-28T12:05:12.222Z,15.85
2022-07-28T12:07:42.262Z,26.73
2022-07-28T12:10:52.292Z,12.63
2022-07-28T12:13:16.278Z,20.23
2022-07-28T12:15:50.584Z,51.55
2022-07-28T12:18:18.341Z,14.35
2022-07-28T12:20:48.618Z,20.95
2022-07-28T12:23:16.708Z,13.63
2022-07-28T12:25:45.978Z,7.15
2022-07-28T12:28:17.150Z,6.93
2022-07-28T12:30:46.131Z,5.40
2022-07-28T12:33:17.704Z,4.03
2022-07-28T12:35:45.488Z,3.67
2022-07-28T12:38:13.269Z,4.65
2022-07-28T12:40:41.057Z,2.70
2022-07-28T12:43:08.789Z,6.03
2022-07-28T12:45:46.059Z,7.45
2022-07-28T12:48:14.386Z,8.82
2022-07-28T12:50:42.567Z,9.30
2022-07-28T12:53:11.369Z,4.22
2022-07-28T12:55:39.518Z,3.28
2022-07-28T12:58:07.848Z,3.47
2022-07-28T13:00:36.715Z,5.10
2022-07-28T13:03:22.239Z,4.00
2022-07-28T13:06:04.924Z,6.75
2022-07-28T13:08:44.740Z,8.85
2022-07-28T13:11:41.986Z,10.60
2022-07-28T13:14:01.882Z,4.72
2022-07-28T13:16:29.872Z,3.70
2022-07-28T13:19:02.444Z,9.10
2022-07-28T13:21:41.152Z,18.00
2022-07-28T13:24:25.221Z,7.70
2022-07-28T13:26:53.025Z,36.95
2022-07-28T13:29:20.725Z,22.05
2022-07-28T13:31:48.606Z,19.95
2022-07-28T13:34:18.207Z,9.80
2022-07-28T13:36:46.153Z,10.00
2022-07-28T13:39:14.451Z,5.95
2022-07-28T13:41:57.812Z,14.65
2022-07-28T13:44:26.680Z,7.25
2022-07-28T13:46:55.340Z,10.77
2022-07-28T13:49:24.676Z,15.15
2022-07-28T13:51:52.437Z,7.95
2022-07-28T13:54:20.698Z,15.63
2022-07-28T13:56:48.881Z,6.45
2022-07-28T13:59:16.680Z,9.52
2022-07-28T14:01:44.472Z,7.97
2022-07-28T14:04:18.050Z,16.67
2022-07-28T14:06:47.213Z,63.15
2022-07-28T14:09:18.863Z,35.58
2022-07-28T14:11:50.106Z,31.73
2022-07-28T14:14:23.800Z,29.02
2022-07-28T14:16:52.815Z,30.83
2022-07-28T14:19:23.415Z,13.50
2022-07-28T14:22:13.304Z,18.05
2022-07-28T14:24:41.932Z,18.25
2022-07-28T14:27:10.352Z,11.73
2022-07-28T14:29:38.421Z,9.57
2022-07-28T14:32:06.689Z,27.67
2022-07-28T14:34:34.681Z,12.23
2022-07-28T14:37:03.525Z,6.55
2022-07-28T14:39:37.987Z,4.60
2022-07-28T14:42:06.069Z,8.95
2022-07-28T14:44:33.966Z,14.35
2022-07-28T14:47:01.685Z,21.20
2022-07-28T14:49:29.510Z,10.23
2022-07-28T14:51:57.821Z,4.30
2022-07-28T14:54:25.763Z,4.65
2022-07-28T14:56:54.902Z,7.40
2022-07-28T14:59:22.651Z,6.20
2022-07-28T15:01:50.464Z,11.57
2022-07-28T15:04:18.852Z,4.78
2022-07-28T15:06:47.189Z,3.63
2022-07-28T15:09:15.103Z,5.13
2022-07-28T15:11:44.631Z,5.47
2022-07-28T15:14:14.705Z,3.25
2022-07-28T15:16:42.742Z,6.68
2022-07-28T15:19:10.524Z,4.35
2022-07-28T15:21:39.833Z,2.35
2022-07-28T15:24:08.575Z,3.88
2022-07-28T15:26:36.364Z,4.68
2022-07-28T15:29:04.328Z,2.45
2022-07-28T15:31:33.613Z,4.95
2022-07-28T15:34:01.578Z,7.78
2022-07-28T15:36:30.227Z,3.30
2022-07-28T15:38:57.922Z,2.45
2022-07-28T15:41:26.904Z,6.00
2022-07-28T15:43:54.625Z,6.75
2022-07-28T15:46:22.318Z,7.00
2022-07-28T15:48:51.409Z,6.57
2022-07-28T15:51:22.612Z,4.57
2022-07-28T15:53:56.114Z,4.63
2022-07-28T15:56:26.144Z,6.82
2022-07-28T15:58:53.888Z,6.80
2022-07-28T16:01:22.833Z,4.47
2022-07-28T16:03:51.923Z,6.82
2022-07-28T16:06:19.668Z,7.93
2022-07-28T16:08:47.396Z,6.00
2022-07-28T16:11:15.170Z,5.60
2022-07-28T16:13:43.057Z,7.15
2022-07-28T16:16:11.923Z,7.57
2022-07-28T16:18:40.705Z,3.47
2022-07-28T16:21:10.350Z,11.80
2022-07-28T16:23:38.084Z,4.97
2022-07-28T16:26:07.873Z,4.43
2022-07-28T16:28:35.901Z,3.90
2022-07-28T16:31:03.709Z,3.00
2022-07-28T16:33:33.098Z,4.43
2022-07-28T16:36:01.676Z,6.95
2022-07-28T16:38:31.102Z,8.90
2022-07-28T16:40:58.813Z,26.33
2022-07-28T16:43:26.580Z,42.20
2022-07-28T16:45:54.310Z,12.57
2022-07-28T16:48:22.038Z,7.20
2022-07-28T16:50:49.729Z,3.83
2022-07-28T16:53:17.492Z,8.57
2022-07-28T16:55:48.033Z,8.98
2022-07-28T16:58:15.760Z,5.15
2022-07-28T17:00:43.901Z,4.65
2022-07-28T17:03:11.616Z,4.40
2022-07-28T17:05:39.366Z,6.18
2022-07-28T17:08:08.813Z,3.45
2022-07-28T17:10:36.520Z,10.20
2022-07-28T17:13:05.564Z,5.95
2022-07-28T17:15:33.344Z,8.70
2022-07-28T17:18:01.051Z,4.63
2022-07-28T17:20:28.857Z,5.60
2022-07-28T17:22:57.755Z,7.88
2022-07-28T17:25:50.265Z,4.72
2022-07-28T17:28:14.842Z,3.83
2022-07-28T17:30:42.614Z,3.95
2022-07-28T17:33:10.372Z,6.85
2022-07-28T17:35:38.443Z,5.47
2022-07-28T17:38:06.844Z,4.47
2022-07-28T17:40:34.639Z,6.43
2022-07-28T17:43:02.463Z,4.53
2022-07-28T17:45:31.509Z,5.18
2022-07-28T17:47:59.172Z,3.90
2022-07-28T17:50:26.876Z,5.03
2022-07-28T17:52:54.593Z,2.53
2022-07-28T17:56:00.522Z,3.38
2022-07-28T17:58:29.009Z,4.22
2022-07-28T18:01:09.804Z,3.63
2022-07-28T18:03:58.499Z,6.60
2022-07-28T18:06:27.509Z,2.67
2022-07-28T18:08:55.215Z,4.07
2022-07-28T18:11:22.927Z,2.97
2022-07-28T18:14:04.193Z,3.35
2022-07-28T18:16:34.845Z,2.63
2022-07-28T18:19:02.780Z,6.18
2022-07-28T18:21:30.491Z,2.45
2022-07-28T18:23:58.240Z,2.30
2022-07-28T18:26:25.934Z,2.90
2022-07-28T18:28:53.625Z,3.72
2022-07-28T18:31:21.678Z,2.30
2022-07-28T18:33:50.893Z,3.38
2022-07-28T18:36:18.567Z,3.15
2022-07-28T18:38:46.288Z,1.98
2022-07-28T18:41:13.992Z,3.03
2022-07-28T18:43:41.736Z,3.15
2022-07-28T18:46:09.509Z,3.15
2022-07-28T18:48:37.966Z,3.00
2022-07-28T18:51:07.124Z,3.30
2022-07-28T18:53:35.057Z,3.33
2022-07-28T18:56:02.725Z,1.95
2022-07-28T18:58:30.659Z,3.40
2022-07-28T19:00:58.432Z,3.53
2022-07-28T19:03:26.121Z,2.95
2022-07-28T19:05:54.276Z,3.25
2022-07-28T19:08:23.860Z,1.92
2022-07-28T19:10:51.552Z,2.38
2022-07-28T19:13:19.289Z,2.35
2022-07-28T19:15:47.074Z,1.95
2022-07-28T19:18:14.826Z,4.20
2022-07-28T19:20:42.595Z,3.45
2022-07-28T19:23:10.250Z,5.95
2022-07-28T19:25:40.187Z,1.85
2022-07-28T19:28:07.847Z,2.40
2022-07-28T19:30:35.894Z,2.95
2022-07-28T19:33:03.843Z,1.98
2022-07-28T19:35:31.573Z,2.15
2022-07-28T19:38:00.908Z,3.78
2022-07-28T19:40:31.506Z,2.88
2022-07-28T19:43:00.674Z,1.90
2022-07-28T19:45:28.348Z,3.30
2022-07-28T19:47:56.033Z,1.60
2022-07-28T19:50:23.705Z,1.13
2022-07-28T19:52:51.367Z,2.50
2022-07-28T19:55:19.714Z,2.63
2022-07-28T19:57:47.413Z,2.55
2022-07-28T20:00:17.292Z,3.45
2022-07-28T20:02:45.702Z,1.75
2022-07-28T20:05:13.556Z,2.70
2022-07-28T20:07:41.238Z,2.13
2022-07-28T20:10:09.487Z,1.65
2022-07-28T20:12:37.223Z,3.30
2022-07-28T20:15:05.202Z,1.70
2022-07-28T20:17:41.390Z,1.80
2022-07-28T20:20:10.196Z,5.60
2022-07-28T20:22:39.599Z,1.27
2022-07-28T20:25:09.467Z,1.63
2022-07-28T20:27:39.882Z,1.95
2022-07-28T20:30:09.572Z,1.77
2022-07-28T20:32:38.643Z,2.63
2022-07-28T20:35:09.035Z,2.10
2022-07-28T20:37:37.805Z,2.22
2022-07-28T20:40:07.569Z,3.45
2022-07-28T20:42:35.276Z,2.38
2022-07-28T20:45:02.976Z,3.20
2022-07-28T20:47:32.645Z,2.25
2022-07-28T20:50:01.751Z,2.38
2022-07-28T20:52:30.139Z,1.50
2022-07-28T20:54:57.822Z,3.72
2022-07-28T20:57:25.504Z,1.50
2022-07-28T20:59:53.190Z,2.33
2022-07-28T21:02:21.102Z,3.53
2022-07-28T21:04:50.472Z,1.50
2022-07-28T21:07:59.575Z,0.95
2022-07-28T21:10:08.258Z,1.63
2022-07-28T21:12:36.971Z,1.77
2022-07-28T21:15:04.971Z,1.83
2022-07-28T21:17:32.704Z,2.28
2022-07-28T21:20:00.384Z,2.22
2022-07-28T21:22:29.390Z,1.95
2022-07-28T21:24:57.074Z,1.58
2022-07-28T21:27:24.864Z,2.13
2022-07-28T21:32:18.335Z,1.65
2022-07-28T21:34:46.047Z,1.73
2022-07-28T21:37:14.033Z,2.33
2022-07-28T21:39:43.287Z,1.50
2022-07-28T21:42:10.973Z,1.23
2022-07-28T21:44:38.663Z,1.00
2022-07-28T21:47:06.499Z,1.95
2022-07-28T21:49:34.169Z,1.85
2022-07-28T21:52:01.836Z,1.20
2022-07-28T21:54:29.524Z,2.35
2022-07-28T21:56:58.751Z,2.25
2022-07-28T21:59:26.427Z,2.33
2022-07-28T22:01:54.150Z,1.27
2022-07-28T22:04:22.091Z,1.00
2022-07-28T22:06:50.336Z,2.08
2022-07-28T22:09:18.046Z,1.42
2022-07-28T22:11:45.731Z,1.02
2022-07-28T22:14:15.008Z,2.67
2022-07-28T22:16:42.947Z,2.60
2022-07-28T22:19:12.048Z,1.50
2022-07-28T22:21:39.769Z,1.40
2022-07-28T22:24:08.445Z,1.77
2022-07-28T22:26:36.133Z,2.15
2022-07-28T22:29:03.851Z,1.27
2022-07-28T22:31:32.895Z,2.30
2022-07-28T22:34:00.586Z,1.30
2022-07-28T22:36:28.540Z,1.58
2022-07-28T22:38:56.230Z,2.60
2022-07-28T22:41:23.907Z,1.50
2022-07-28T22:43:51.560Z,1.00
2022-07-28T22:46:19.260Z,1.38
2022-07-28T22:48:48.335Z,1.05
2022-07-28T22:51:16.616Z,1.20
2022-07-28T22:53:44.273Z,1.20
2022-07-28T22:56:12.015Z,1.33
2022-07-28T22:58:40.053Z,1.55
2022-07-28T23:01:07.838Z,1.20
2022-07-28T23:03:36.856Z,1.50
2022-07-28T23:06:07.426Z,1.45
2022-07-28T23:08:35.072Z,1.05
2022-07-28T23:11:02.809Z,1.17
2022-07-28T23:13:30.469Z,1.30
2022-07-28T23:15:58.208Z,1.42
2022-07-28T23:18:25.930Z,1.55
2022-07-28T23:20:53.579Z,1.25
2022-07-28T23:23:22.628Z,1.75
2022-07-28T23:25:50.320Z,1.13
2022-07-28T23:28:18.048Z,2.47
2022-07-28T23:30:47.193Z,1.23
2022-07-28T23:33:20.659Z,1.38
2022-07-28T23:36:02.544Z,1.35
2022-07-28T23:38:31.566Z,1.30
2022-07-28T23:40:59.243Z,1.10
2022-07-28T23:43:26.908Z,2.03
2022-07-28T23:45:54.568Z,1.13
2022-07-28T23:48:22.250Z,2.50
2022-07-28T23:50:50.087Z,1.30
2022-07-28T23:53:17.753Z,1.25
2022-07-28T23:55:46.756Z,1.60
2022-07-28T23:58:14.419Z,0.90
